createdAt,value
2023-04-27T00:03:12.005Z,9.68
2023-04-27T00:08:13.558Z,9.66
2023-04-27T00:13:14.899Z,9.61
2023-04-27T00:18:16.304Z,9.67
2023-04-27T00:23:17.657Z,9.68
2023-04-27T00:28:19.012Z,9.68
2023-04-27T00:33:21.269Z,9.64
2023-04-27T00:38:22.590Z,9.62
2023-04-27T00:43:23.931Z,9.63
2023-04-27T00:48:25.924Z,9.58
2023-04-27T00:53:27.290Z,9.50
2023-04-27T00:58:28.812Z,9.45
2023-04-27T01:03:30.747Z,9.29
2023-04-27T01:08:32.229Z,9.10
2023-04-27T01:13:33.564Z,9.05
2023-04-27T01:18:35.025Z,8.99
2023-04-27T01:23:36.557Z,8.95
2023-04-27T01:28:37.916Z,8.92
2023-04-27T01:33:39.804Z,8.86
2023-04-27T01:38:41.555Z,8.87
2023-04-27T01:43:43.682Z,8.63
2023-04-27T01:48:45.042Z,8.44
2023-04-27T01:53:46.383Z,8.34
2023-04-27T01:58:47.702Z,8.44
2023-04-27T02:03:52.207Z,8.50
2023-04-27T02:08:53.714Z,8.61
2023-04-27T02:13:55.242Z,8.64
2023-04-27T02:18:56.602Z,8.68
2023-04-27T02:23:58.008Z,8.69
2023-04-27T02:28:59.496Z,8.68
2023-04-27T02:34:01.386Z,8.59
2023-04-27T02:39:03.092Z,8.50
2023-04-27T02:44:04.629Z,8.38
2023-04-27T02:49:06.000Z,8.31
2023-04-27T02:54:07.405Z,8.26
2023-04-27T02:59:08.729Z,8.21
2023-04-27T03:04:10.779Z,8.20
2023-04-27T03:09:13.186Z,8.23
2023-04-27T03:14:14.702Z,7.98
2023-04-27T03:19:16.254Z,8.00
2023-04-27T03:24:17.728Z,8.11
2023-04-27T03:29:19.221Z,8.20
2023-04-27T03:34:21.758Z,8.16
2023-04-27T03:39:23.135Z,8.19
2023-04-27T03:44:24.497Z,8.27
2023-04-27T03:49:26.227Z,8.26
2023-04-27T03:54:27.569Z,8.22
2023-04-27T03:59:30.122Z,8.23
2023-04-27T04:04:31.809Z,8.22
2023-04-27T04:09:33.318Z,8.21
2023-04-27T04:14:34.650Z,8.24
2023-04-27T04:19:36.179Z,8.24
2023-04-27T04:24:37.588Z,8.26
2023-04-27T04:29:39.328Z,8.12
2023-04-27T04:34:40.717Z,8.10
2023-04-27T04:39:42.053Z,8.07
2023-04-27T04:44:43.452Z,8.04
2023-04-27T04:49:44.817Z,7.95
2023-04-27T04:54:46.381Z,7.95
2023-04-27T04:59:47.754Z,7.95
2023-04-27T05:04:49.596Z,7.98
2023-04-27T05:09:50.978Z,8.05
2023-04-27T05:14:53.086Z,8.09
2023-04-27T05:19:54.415Z,8.09
2023-04-27T05:24:57.109Z,8.16
2023-04-27T05:29:58.441Z,8.24
2023-04-27T05:34:59.801Z,8.40
2023-04-27T05:40:01.289Z,8.44
2023-04-27T05:45:03.835Z,8.56
2023-04-27T05:50:06.151Z,8.68
2023-04-27T05:55:08.209Z,8.80
2023-04-27T06:00:10.961Z,9.04
2023-04-27T06:05:12.406Z,9.19
2023-04-27T06:10:14.571Z,9.39
2023-04-27T06:15:17.003Z,9.60
2023-04-27T06:20:18.530Z,9.85
2023-04-27T06:25:20.019Z,10.00
2023-04-27T06:30:21.525Z,10.24
2023-04-27T06:35:22.925Z,10.37
2023-04-27T06:40:25.826Z,10.64
2023-04-27T06:45:27.211Z,10.88
2023-04-27T06:50:29.304Z,11.13
2023-04-27T06:55:30.919Z,11.34
2023-04-27T07:00:32.317Z,11.42
2023-04-27T07:05:34.493Z,11.49
2023-04-27T07:10:36.049Z,11.67
2023-04-27T07:15:37.403Z,11.76
2023-04-27T07:20:38.736Z,12.08
2023-04-27T07:25:40.254Z,12.26
2023-04-27T07:30:42.582Z,12.35
2023-04-27T07:35:43.921Z,12.33
2023-04-27T07:40:46.116Z,12.55
2023-04-27T07:45:48.011Z,12.68
2023-04-27T07:50:49.404Z,12.85
2023-04-27T07:55:50.790Z,13.02
2023-04-27T08:00:52.130Z,13.04
2023-04-27T08:05:53.627Z,13.10
2023-04-27T08:10:55.393Z,13.23
2023-04-27T08:15:59.202Z,13.29
2023-04-27T08:21:00.581Z,13.28
2023-04-27T08:26:01.910Z,13.41
2023-04-27T08:31:03.373Z,13.66
2023-04-27T08:36:05.161Z,13.91
2023-04-27T08:41:20.345Z,14.00
2023-04-27T08:46:24.241Z,14.25
2023-04-27T08:51:27.434Z,14.20
2023-04-27T08:56:29.821Z,14.34
2023-04-27T09:01:32.149Z,14.52
2023-04-27T09:06:35.774Z,14.66
2023-04-27T09:11:38.960Z,14.82
2023-04-27T09:16:40.395Z,15.00
2023-04-27T09:21:43.079Z,15.33
2023-04-27T09:26:49.605Z,15.58
2023-04-27T09:31:51.038Z,15.58
2023-04-27T09:36:53.224Z,15.56
2023-04-27T09:41:54.935Z,15.82
2023-04-27T09:46:58.563Z,16.14
2023-04-27T09:51:59.933Z,16.33
2023-04-27T09:57:15.380Z,16.55
2023-04-27T10:02:25.350Z,16.48
2023-04-27T10:07:28.238Z,16.51
2023-04-27T10:12:38.703Z,16.83
2023-04-27T10:17:48.203Z,16.90
2023-04-27T10:22:52.473Z,17.37
2023-04-27T10:28:01.970Z,17.61
2023-04-27T10:33:11.696Z,17.87
2023-04-27T10:38:18.554Z,18.34
2023-04-27T10:43:28.396Z,18.79
2023-04-27T10:48:30.143Z,19.13
2023-04-27T10:53:35.949Z,19.45
2023-04-27T11:03:46.734Z,20.19
2023-04-27T11:08:48.364Z,20.35
2023-04-27T11:13:50.357Z,20.19
2023-04-27T11:18:51.730Z,20.11
2023-04-27T11:23:53.272Z,20.40
2023-04-27T11:29:04.929Z,20.45
2023-04-27T11:34:08.015Z,20.86
2023-04-27T11:39:16.730Z,21.25
2023-04-27T11:44:18.257Z,21.50
2023-04-27T11:49:19.950Z,21.50
2023-04-27T11:54:28.500Z,21.17
2023-04-27T11:59:29.878Z,21.63
2023-04-27T12:04:32.004Z,21.93
2023-04-27T12:09:33.961Z,22.11
2023-04-27T12:14:35.540Z,22.21
2023-04-27T12:19:37.182Z,21.77
2023-04-27T12:24:38.603Z,21.54
2023-04-27T12:29:39.947Z,22.24
2023-04-27T12:34:42.780Z,21.78
2023-04-27T12:39:44.193Z,21.49
2023-04-27T12:44:45.606Z,21.91
2023-04-27T12:49:47.057Z,22.21
2023-04-27T12:54:48.476Z,22.09
2023-04-27T12:59:49.802Z,21.85
2023-04-27T13:04:51.695Z,22.06
2023-04-27T13:09:53.131Z,22.36
2023-04-27T13:14:54.638Z,22.50
2023-04-27T13:19:56.155Z,22.49
2023-04-27T13:24:57.951Z,22.85
2023-04-27T13:29:59.426Z,23.13
2023-04-27T13:35:00.839Z,23.62
2023-04-27T13:40:02.179Z,23.83
2023-04-27T13:45:04.718Z,24.19
2023-04-27T13:50:08.098Z,24.25
2023-04-27T13:55:10.776Z,24.36
2023-04-27T14:00:13.860Z,24.66
2023-04-27T14:05:15.373Z,24.37
2023-04-27T14:10:17.788Z,24.39
2023-04-27T14:15:19.255Z,24.71
2023-04-27T14:20:21.116Z,24.52
2023-04-27T14:25:22.507Z,25.13
2023-04-27T14:30:23.934Z,25.81
2023-04-27T14:35:25.595Z,25.37
2023-04-27T14:40:28.938Z,24.94
2023-04-27T14:45:39.713Z,24.89
2023-04-27T14:50:49.353Z,25.43
2023-04-27T14:55:50.850Z,25.86
2023-04-27T15:00:52.428Z,25.57
2023-04-27T15:05:54.054Z,24.99
2023-04-27T15:10:57.696Z,25.33
2023-04-27T15:16:00.848Z,25.55
2023-04-27T15:21:02.384Z,25.72
2023-04-27T15:26:03.801Z,25.60
2023-04-27T15:31:05.185Z,25.51
2023-04-27T15:36:06.721Z,25.35
2023-04-27T15:41:08.074Z,25.20
2023-04-27T15:46:09.560Z,25.02
2023-04-27T15:51:11.915Z,24.80
2023-04-27T15:56:13.324Z,24.83
2023-04-27T16:01:14.792Z,24.66
2023-04-27T16:06:16.472Z,24.76
2023-04-27T16:11:17.788Z,24.80
2023-04-27T16:16:19.178Z,24.67
2023-04-27T16:21:21.669Z,24.80
2023-04-27T16:26:23.514Z,25.20
2023-04-27T16:31:25.858Z,25.49
2023-04-27T16:36:27.694Z,25.59
2023-04-27T16:41:29.214Z,25.33
2023-04-27T16:46:30.610Z,24.97
2023-04-27T16:51:32.457Z,24.40
2023-04-27T16:56:36.050Z,23.98
2023-04-27T17:01:37.957Z,23.54
2023-04-27T17:06:40.851Z,23.25
2023-04-27T17:11:42.338Z,23.07
2023-04-27T17:16:43.729Z,22.77
2023-04-27T17:21:45.066Z,22.52
2023-04-27T17:26:48.142Z,22.22
2023-04-27T17:31:50.463Z,22.01
2023-04-27T17:36:51.943Z,21.74
2023-04-27T17:41:53.278Z,21.44
2023-04-27T17:46:54.761Z,21.17
2023-04-27T17:51:56.295Z,20.93
2023-04-27T17:56:57.717Z,20.70
2023-04-27T18:01:59.231Z,20.50
2023-04-27T18:07:00.576Z,20.34
2023-04-27T18:12:02.263Z,20.09
2023-04-27T18:17:04.047Z,19.75
2023-04-27T18:22:05.400Z,19.53
2023-04-27T18:27:06.904Z,19.31
2023-04-27T18:32:08.469Z,19.09
2023-04-27T18:37:10.506Z,18.80
2023-04-27T18:42:11.876Z,18.55
2023-04-27T18:47:13.927Z,18.35
2023-04-27T18:52:15.337Z,18.17
2023-04-27T18:57:16.689Z,17.94
2023-04-27T19:02:18.099Z,17.66
2023-04-27T19:07:19.599Z,17.48
2023-04-27T19:12:22.638Z,17.19
2023-04-27T19:17:24.039Z,16.88
2023-04-27T19:22:26.910Z,16.63
2023-04-27T19:27:28.290Z,16.68
2023-04-27T19:32:30.729Z,16.67
2023-04-27T19:37:32.105Z,16.62
2023-04-27T19:42:33.587Z,16.53
2023-04-27T19:47:35.370Z,16.42
2023-04-27T19:52:36.858Z,16.37
2023-04-27T19:57:38.179Z,16.37
2023-04-27T20:02:39.833Z,16.30
2023-04-27T20:07:41.689Z,16.20
2023-04-27T20:12:55.402Z,16.05
2023-04-27T20:17:57.886Z,15.99
2023-04-27T20:22:59.310Z,15.84
2023-04-27T20:28:00.694Z,15.62
2023-04-27T20:33:03.588Z,15.53
2023-04-27T20:38:05.492Z,15.48
2023-04-27T20:43:07.914Z,15.54
2023-04-27T20:48:11.691Z,15.60
2023-04-27T20:53:13.115Z,15.67
2023-04-27T20:58:14.565Z,15.71
2023-04-27T21:03:16.177Z,15.66
2023-04-27T21:08:17.825Z,15.67
2023-04-27T21:13:19.772Z,15.67
2023-04-27T21:18:29.607Z,15.64
2023-04-27T21:23:35.343Z,15.61
2023-04-27T21:28:36.928Z,15.56
2023-04-27T21:33:38.317Z,15.50
2023-04-27T21:38:39.630Z,15.46
2023-04-27T21:43:42.067Z,15.44
2023-04-27T21:48:43.493Z,15.41
2023-04-27T21:53:44.838Z,15.37
2023-04-27T21:58:46.348Z,15.31
2023-04-27T22:03:47.834Z,15.27
2023-04-27T22:08:49.303Z,15.24
2023-04-27T22:13:51.175Z,15.26
2023-04-27T22:18:53.759Z,15.16
2023-04-27T22:23:55.234Z,15.17
2023-04-27T22:28:56.845Z,15.17
2023-04-27T22:33:58.438Z,15.17
2023-04-27T22:39:00.184Z,15.18
2023-04-27T22:44:01.594Z,15.10
2023-04-27T22:49:03.086Z,14.97
2023-04-27T22:54:04.478Z,14.96
2023-04-27T22:59:06.015Z,14.98
2023-04-27T23:04:08.897Z,14.89
2023-04-27T23:09:10.563Z,14.97
2023-04-27T23:14:12.068Z,15.03
2023-04-27T23:19:13.583Z,15.02
2023-04-27T23:24:15.153Z,15.03
2023-04-27T23:29:16.758Z,14.99
2023-04-27T23:34:18.237Z,14.97
2023-04-27T23:39:19.780Z,14.95
2023-04-27T23:44:21.364Z,14.97
2023-04-27T23:49:22.730Z,14.99
2023-04-27T23:54:24.034Z,14.96
2023-04-27T23:59:25.412Z,14.90
